Time;durP1;ratioP1;P1;durP2;ratioP2;P2;SDS_P1;SDS_P2;PMS_P1;PMS_P2;Temp;Humidity;BMP_temperature;BMP_pressure;BME280_temperature;BME280_humidity;BME280_pressure;Samples;Min_cycle;Max_cycle;Signal;HPM_P1;HPM_P2
2022/06/13 00:02:15;;;;;;;;;;;;;;;13.84;100.00;102049.44;2612962;36;20506;-61
2022/06/13 00:04:43;;;;;;;;;;;;;;;13.90;100.00;102053.50;2613542;36;20398;-60
2022/06/13 00:07:12;;;;;;;;;;;;;;;13.96;100.00;102060.22;2613306;36;20019;-60
2022/06/13 00:09:40;;;;;;;;;;;;;;;13.91;100.00;102044.34;2613364;31;19947;-60
2022/06/13 00:12:08;;;;;;;;;;;;;;;13.80;100.00;102042.56;2611921;31;19950;-60
2022/06/13 00:14:36;;;;;;;;;;;;;;;13.76;100.00;102035.69;2613644;31;20370;-61
2022/06/13 00:17:07;;;;;;;;;;;;;;;13.76;100.00;102037.53;2613220;36;19970;-59
2022/06/13 00:19:35;;;;;;;;;;;;;;;13.72;100.00;102033.38;2613228;36;19946;-59
2022/06/13 00:22:03;;;;;;;;;;;;;;;13.73;100.00;102025.13;2613479;36;19955;-62
2022/06/13 00:24:31;;;;;;;;;;;;;;;13.78;100.00;102019.31;2613777;36;20395;-59
2022/06/13 00:26:59;;;;;;;;;;;;;;;13.91;100.00;102011.88;2613193;36;20522;-60
2022/06/13 00:29:27;;;;;;;;;;;;;;;13.97;100.00;102011.38;2614375;36;20403;-59
2022/06/13 00:31:56;;;;;;;;;;;;;;;13.95;100.00;102007.94;2613776;36;20418;-59
2022/06/13 00:34:26;;;;;;;;;;;;;;;14.06;100.00;102003.44;2613879;36;19992;-60
2022/06/13 00:36:54;;;;;;;;;;;;;;;14.06;100.00;101998.03;2613979;36;20360;-60
2022/06/13 00:39:22;;;;;;;;;;;;;;;14.17;100.00;101996.13;2613465;36;19951;-59
2022/06/13 00:41:51;;;;;;;;;;;;;;;14.07;100.00;102010.59;2613283;36;19953;-59
2022/06/13 00:44:21;;;;;;;;;;;;;;;13.89;100.00;102004.91;2613126;36;19978;-59
2022/06/13 00:46:50;;;;;;;;;;;;;;;13.88;100.00;101998.59;2614068;36;20408;-59
2022/06/13 00:49:21;;;;;;;;;;;;;;;13.96;100.00;101996.13;2613377;36;19973;-59
2022/06/13 00:51:55;;;;;;;;;;;;;;;13.95;100.00;101997.09;2612850;36;19978;-59
2022/06/13 00:54:24;;;;;;;;;;;;;;;13.89;100.00;101994.06;2613091;36;19985;-60
2022/06/13 00:56:52;;;;;;;;;;;;;;;13.81;100.00;101983.91;2612605;36;20021;-60
2022/06/13 00:59:22;;;;;;;;;;;;;;;13.84;100.00;101984.50;2613698;31;19985;-58
2022/06/13 01:01:51;;;;;;;;;;;;;;;13.80;100.00;101987.59;2613683;36;19950;-59
2022/06/13 01:04:19;;;;;;;;;;;;;;;13.76;100.00;101986.97;2613249;36;20399;-60
2022/06/13 01:06:49;;;;;;;;;;;;;;;13.85;100.00;101985.34;2613059;36;19951;-59
2022/06/13 01:11:16;;;;;;;;;;;;;;;13.72;100.00;101980.13;2613442;36;19954;-61
2022/06/13 01:12:09;;;;;;;;;;;;;;;13.76;100.00;101980.72;2613106;36;20386;-59
2022/06/13 01:14:50;;;;;;;;;;;;;;;13.90;100.00;101977.72;2613813;36;19946;-59
2022/06/13 01:17:27;;;;;;;;;;;;;;;13.93;100.00;101982.00;2613197;36;20134;-61
2022/06/13 01:20:13;;;;;;;;;;;;;;;13.86;100.00;101976.25;2613592;36;20491;-62
2022/06/13 01:22:57;;;;;;;;;;;;;;;13.77;100.00;101977.03;2613435;36;19958;-59
2022/06/13 01:25:39;;;;;;;;;;;;;;;13.78;100.00;101986.84;2612818;36;19954;-62
2022/06/13 01:28:13;;;;;;;;;;;;;;;13.93;100.00;101993.69;2613929;31;20518;-60
2022/06/13 01:30:55;;;;;;;;;;;;;;;13.81;100.00;101997.44;2613581;36;20002;-58
2022/06/13 01:33:29;;;;;;;;;;;;;;;13.65;100.00;101996.00;2613243;36;19951;-59
2022/06/13 01:36:04;;;;;;;;;;;;;;;13.66;100.00;101997.72;2613544;36;19946;-60
2022/06/13 01:38:41;;;;;;;;;;;;;;;13.78;100.00;102001.25;2613390;36;19955;-60
2022/06/13 01:41:13;;;;;;;;;;;;;;;13.77;100.00;101993.28;2613842;36;19950;-59
2022/06/13 01:43:55;;;;;;;;;;;;;;;13.66;100.00;101989.63;2613882;36;19946;-60
2022/06/13 01:46:31;;;;;;;;;;;;;;;13.69;100.00;101985.78;2614367;36;19950;-60
2022/06/13 01:49:04;;;;;;;;;;;;;;;13.70;100.00;101994.78;2613900;36;19955;-60
2022/06/13 01:51:37;;;;;;;;;;;;;;;13.63;100.00;101995.28;2614608;36;19958;-60
2022/06/13 01:54:14;;;;;;;;;;;;;;;13.68;100.00;101989.50;2614015;31;19954;-59
2022/06/13 01:56:45;;;;;;;;;;;;;;;13.70;100.00;101992.06;2613944;36;19993;-61
2022/06/13 01:59:17;;;;;;;;;;;;;;;13.63;100.00;101998.00;2613972;31;20419;-59
2022/06/13 02:01:54;;;;;;;;;;;;;;;13.66;100.00;101997.72;2614348;36;19974;-59
2022/06/13 02:04:24;;;;;;;;;;;;;;;13.62;100.00;101990.84;2614306;36;19977;-60
2022/06/13 02:06:54;;;;;;;;;;;;;;;13.54;100.00;101987.91;2614061;36;19954;-62
2022/06/13 02:09:24;;;;;;;;;;;;;;;13.54;100.00;101987.06;2614197;36;19950;-59
2022/06/13 02:11:53;;;;;;;;;;;;;;;13.57;100.00;101989.50;2613676;36;20459;-58
2022/06/13 02:14:23;;;;;;;;;;;;;;;13.46;100.00;101990.41;2613603;36;19951;-59
2022/06/13 02:16:57;;;;;;;;;;;;;;;13.30;100.00;101986.22;2614024;31;19951;-61
2022/06/13 02:19:29;;;;;;;;;;;;;;;13.30;100.00;101983.53;2613989;31;19954;-59
2022/06/13 02:22:00;;;;;;;;;;;;;;;13.36;100.00;101987.59;2613663;36;19946;-62
2022/06/13 02:24:31;;;;;;;;;;;;;;;13.31;100.00;101987.97;2613865;36;19950;-61
2022/06/13 02:27:00;;;;;;;;;;;;;;;13.22;100.00;101988.72;2613921;36;20411;-62
2022/06/13 02:29:32;;;;;;;;;;;;;;;13.23;100.00;101985.00;2614039;36;19958;-59
2022/06/13 02:32:06;;;;;;;;;;;;;;;13.23;100.00;101993.13;2613799;36;19957;-59
2022/06/13 02:34:36;;;;;;;;;;;;;;;13.18;100.00;101991.81;2614372;36;19947;-59
2022/06/13 02:37:09;;;;;;;;;;;;;;;13.18;100.00;102002.63;2613964;36;20447;-59
2022/06/13 02:39:41;;;;;;;;;;;;;;;13.13;100.00;101998.44;2614275;36;19946;-60
2022/06/13 02:42:13;;;;;;;;;;;;;;;13.20;100.00;102001.50;2613767;31;19983;-60
2022/06/13 02:44:43;;;;;;;;;;;;;;;13.17;100.00;101996.34;2614953;36;20360;-59
2022/06/13 02:47:17;;;;;;;;;;;;;;;13.19;100.00;102002.50;2614152;31;19950;-62
2022/06/13 02:49:47;;;;;;;;;;;;;;;13.13;100.00;101995.75;2614038;36;19954;-60
2022/06/13 02:52:21;;;;;;;;;;;;;;;13.18;100.00;101998.06;2613995;36;19957;-60
2022/06/13 02:54:52;;;;;;;;;;;;;;;13.14;100.00;101992.03;2614051;36;20371;-60
2022/06/13 02:57:31;;;;;;;;;;;;;;;13.10;100.00;102000.53;2613407;36;19977;-60
2022/06/13 03:00:05;;;;;;;;;;;;;;;13.14;100.00;101993.88;2614231;36;19981;-61
2022/06/13 03:02:40;;;;;;;;;;;;;;;13.07;100.00;101990.84;2614231;36;19981;-60
2022/06/13 03:05:11;;;;;;;;;;;;;;;13.18;100.00;101997.22;2614141;36;19996;-62
2022/06/13 03:07:42;;;;;;;;;;;;;;;13.18;100.00;101998.06;2614391;36;20329;-62
2022/06/13 03:10:12;;;;;;;;;;;;;;;13.21;100.00;102003.22;2613974;36;19953;-60
2022/06/13 03:12:43;;;;;;;;;;;;;;;13.17;100.00;102001.75;2613492;36;19953;-60
2022/06/13 03:15:16;;;;;;;;;;;;;;;13.20;100.00;101997.94;2614663;36;20436;-60
2022/06/13 03:17:50;;;;;;;;;;;;;;;13.23;100.00;102003.09;2613952;36;19977;-59
2022/06/13 03:20:21;;;;;;;;;;;;;;;13.27;100.00;102002.72;2613855;36;19981;-60
2022/06/13 03:22:51;;;;;;;;;;;;;;;13.28;100.00;102012.53;2613846;31;19977;-59
2022/06/13 03:25:23;;;;;;;;;;;;;;;13.38;100.00;102011.81;2613745;36;19954;-60
2022/06/13 03:27:54;;;;;;;;;;;;;;;13.33;100.00;102010.31;2613528;36;19951;-59
2022/06/13 03:30:24;;;;;;;;;;;;;;;13.40;100.00;102013.41;2613875;36;19946;-59
2022/06/13 03:35:38;;;;;;;;;;;;;;;13.38;100.00;102017.22;2613969;36;19950;-59
2022/06/13 03:38:07;;;;;;;;;;;;;;;13.42;100.00;102014.13;2613384;36;19953;-58
2022/06/13 03:40:39;;;;;;;;;;;;;;;13.46;100.00;102015.59;2614240;36;19963;-62
2022/06/13 03:43:10;;;;;;;;;;;;;;;13.46;100.00;102022.88;2613312;36;20432;-59
2022/06/13 03:45:40;;;;;;;;;;;;;;;13.51;100.00;102020.63;2614335;36;19977;-61
2022/06/13 03:48:14;;;;;;;;;;;;;;;13.59;100.00;102020.88;2613860;36;19947;-60
2022/06/13 03:50:46;;;;;;;;;;;;;;;13.73;100.00;102027.81;2614186;36;19947;-60
2022/06/13 03:53:18;;;;;;;;;;;;;;;13.76;100.00;102034.84;2613748;36;19954;-58
2022/06/13 03:55:50;;;;;;;;;;;;;;;13.76;100.00;102029.41;2614229;36;19951;-59
2022/06/13 03:58:21;;;;;;;;;;;;;;;13.80;100.00;102030.88;2613728;36;19952;-58
2022/06/13 04:00:52;;;;;;;;;;;;;;;13.88;100.00;102030.25;2614490;36;20379;-59
2022/06/13 04:03:24;;;;;;;;;;;;;;;13.82;100.00;102028.91;2614030;36;19969;-59
2022/06/13 04:05:59;;;;;;;;;;;;;;;13.88;100.00;102039.19;2612841;36;20375;-61
2022/06/13 04:08:29;;;;;;;;;;;;;;;13.89;100.00;102030.09;2614394;31;19950;-61
2022/06/13 04:11:06;;;;;;;;;;;;;;;13.95;100.00;102035.00;2613896;36;19946;-58
2022/06/13 04:13:43;;;;;;;;;;;;;;;14.06;100.00;102027.81;2613288;36;19981;-61
2022/06/13 04:16:18;;;;;;;;;;;;;;;14.09;100.00;102028.44;2613605;36;19954;-58
2022/06/13 04:18:54;;;;;;;;;;;;;;;14.21;100.00;102029.22;2613908;36;20182;-59
2022/06/13 04:21:27;;;;;;;;;;;;;;;14.20;100.00;102022.94;2613795;36;20477;-58
2022/06/13 04:24:03;;;;;;;;;;;;;;;14.22;100.00;102035.50;2613113;36;19946;-59
2022/06/13 04:26:35;;;;;;;;;;;;;;;14.26;100.00;102034.25;2613427;36;19953;-59
2022/06/13 04:29:07;;;;;;;;;;;;;;;14.48;100.00;102036.81;2613456;36;19954;-59
2022/06/13 04:31:36;;;;;;;;;;;;;;;14.50;100.00;102029.44;2613920;36;19955;-59
2022/06/13 04:34:09;;;;;;;;;;;;;;;14.66;100.00;102023.56;2612715;36;19954;-57
2022/06/13 04:36:38;;;;;;;;;;;;;;;14.62;100.00;102022.13;2613556;36;19946;-60
2022/06/13 04:39:08;;;;;;;;;;;;;;;14.76;100.00;102011.91;2614333;31;19951;-62
2022/06/13 04:41:39;;;;;;;;;;;;;;;14.77;100.00;102009.06;2613316;36;19966;-60
2022/06/13 04:44:08;;;;;;;;;;;;;;;14.87;100.00;102009.13;2613239;36;19954;-61
2022/06/13 04:46:37;;;;;;;;;;;;;;;15.12;100.00;102005.06;2614483;36;20349;-59
2022/06/13 04:49:16;;;;;;;;;;;;;;;15.18;100.00;102009.06;2613861;36;19950;-62
2022/06/13 04:51:46;;;;;;;;;;;;;;;15.26;100.00;102003.81;2613461;36;19966;-61
2022/06/13 04:54:17;;;;;;;;;;;;;;;15.33;100.00;102004.97;2613012;36;19954;-60
2022/06/13 04:56:49;;;;;;;;;;;;;;;15.34;100.00;102008.53;2615896;54;19938;-59
2022/06/13 04:59:18;;;;;;;;;;;;;;;15.35;100.00;102008.38;2614016;31;19950;-63
2022/06/13 05:01:47;;;;;;;;;;;;;;;15.57;100.00;102006.44;2613922;36;19990;-61
2022/06/13 05:04:19;;;;;;;;;;;;;;;15.74;100.00;102008.47;2613472;36;19951;-59
2022/06/13 05:06:50;;;;;;;;;;;;;;;15.81;100.00;102007.91;2613599;36;19950;-59
2022/06/13 05:09:21;;;;;;;;;;;;;;;15.66;100.00;102011.00;2613412;36;20310;-62
2022/06/13 05:11:52;;;;;;;;;;;;;;;15.84;100.00;102013.06;2613803;36;19950;-60
2022/06/13 05:14:22;;;;;;;;;;;;;;;15.82;100.00;102015.91;2613260;36;19950;-59
2022/06/13 05:16:57;;;;;;;;;;;;;;;15.97;100.00;102019.06;2613949;36;20321;-59
2022/06/13 05:19:36;;;;;;;;;;;;;;;15.92;100.00;102021.34;2614530;36;19951;-60
2022/06/13 05:22:11;;;;;;;;;;;;;;;16.00;100.00;102023.34;2614009;36;19954;-60
2022/06/13 05:24:54;;;;;;;;;;;;;;;16.03;100.00;102029.38;2614250;36;20362;-58
2022/06/13 05:27:22;;;;;;;;;;;;;;;16.22;100.00;102028.47;2614298;36;19947;-60
2022/06/13 05:29:50;;;;;;;;;;;;;;;16.30;100.00;102030.50;2613917;36;19957;-60
2022/06/13 05:32:21;;;;;;;;;;;;;;;16.38;100.00;102033.31;2613880;36;19951;-59
2022/06/13 05:34:52;;;;;;;;;;;;;;;16.56;100.00;102029.84;2614852;36;20375;-61
2022/06/13 05:37:21;;;;;;;;;;;;;;;16.49;100.00;102036.88;2614394;36;20432;-60
2022/06/13 05:39:49;;;;;;;;;;;;;;;16.34;100.00;102037.34;2614186;36;19958;-59
2022/06/13 05:42:17;;;;;;;;;;;;;;;16.55;100.00;102033.56;2614060;36;19958;-58
2022/06/13 05:44:45;;;;;;;;;;;;;;;16.50;100.00;102035.88;2613948;36;19973;-60
2022/06/13 05:47:17;;;;;;;;;;;;;;;16.70;100.00;102037.53;2614472;36;19977;-61
2022/06/13 05:49:45;;;;;;;;;;;;;;;16.74;100.00;102043.53;2614419;36;19969;-59
2022/06/13 05:52:16;;;;;;;;;;;;;;;16.72;100.00;102043.69;2614164;36;19974;-63
2022/06/13 05:54:44;;;;;;;;;;;;;;;16.50;100.00;102044.88;2614062;31;19955;-59
2022/06/13 05:57:13;;;;;;;;;;;;;;;16.65;100.00;102045.25;2614336;36;19947;-60
2022/06/13 05:59:41;;;;;;;;;;;;;;;16.48;100.00;102054.19;2614108;31;19947;-60
2022/06/13 06:02:10;;;;;;;;;;;;;;;16.31;100.00;102048.47;2614012;36;19963;-61
2022/06/13 06:04:38;;;;;;;;;;;;;;;16.44;100.00;102062.66;2613862;36;19946;-61
2022/06/13 06:07:07;;;;;;;;;;;;;;;16.08;100.00;102058.81;2613895;36;19946;-60
2022/06/13 06:09:37;;;;;;;;;;;;;;;16.60;100.00;102058.47;2613875;36;19970;-60
2022/06/13 06:12:06;;;;;;;;;;;;;;;16.63;100.00;102069.03;2614663;31;20443;-60
2022/06/13 06:14:34;;;;;;;;;;;;;;;16.74;100.00;102070.72;2614709;36;20691;-61
2022/06/13 06:17:02;;;;;;;;;;;;;;;16.89;100.00;102068.44;2614103;36;20436;-58
2022/06/13 06:19:30;;;;;;;;;;;;;;;17.40;100.00;102066.19;2613958;36;19957;-58
2022/06/13 06:21:58;;;;;;;;;;;;;;;18.11;100.00;102073.63;2613814;36;19947;-59
2022/06/13 06:24:26;;;;;;;;;;;;;;;18.33;100.00;102074.16;2613954;36;19977;-59
2022/06/13 06:26:58;;;;;;;;;;;;;;;18.30;100.00;102069.00;2614445;36;19957;-60
2022/06/13 06:29:27;;;;;;;;;;;;;;;18.09;100.00;102072.91;2613843;36;20459;-59
2022/06/13 06:31:55;;;;;;;;;;;;;;;18.38;100.00;102071.81;2614658;36;20455;-60
2022/06/13 06:34:23;;;;;;;;;;;;;;;18.33;100.00;102080.47;2613805;36;19958;-61
2022/06/13 06:36:51;;;;;;;;;;;;;;;17.86;100.00;102083.41;2614112;36;19955;-59
2022/06/13 06:39:19;;;;;;;;;;;;;;;17.78;100.00;102075.13;2614963;36;20344;-59
2022/06/13 06:41:47;;;;;;;;;;;;;;;17.69;100.00;102077.75;2614106;36;19958;-60
2022/06/13 06:44:18;;;;;;;;;;;;;;;17.54;100.00;102086.63;2615068;31;20363;-60
2022/06/13 06:46:46;;;;;;;;;;;;;;;17.26;100.00;102081.19;2614446;36;19946;-59
2022/06/13 06:49:14;;;;;;;;;;;;;;;17.47;100.00;102079.03;2614225;31;19950;-60
2022/06/13 06:51:43;;;;;;;;;;;;;;;17.57;100.00;102095.31;2614626;36;19947;-60
2022/06/13 07:02:16;;;;;;;;;;;;;;;18.19;100.00;102090.03;2613769;36;19973;-58
2022/06/13 07:04:44;;;;;;;;;;;;;;;17.69;100.00;102082.34;2613717;31;19957;-61
2022/06/13 07:07:12;;;;;;;;;;;;;;;17.11;100.00;102089.81;2613988;36;19955;-59
2022/06/13 07:09:40;;;;;;;;;;;;;;;17.01;100.00;102094.44;2614140;36;20442;-58
2022/06/13 07:12:08;;;;;;;;;;;;;;;17.01;100.00;102090.88;2613674;36;19950;-58
2022/06/13 07:14:39;;;;;;;;;;;;;;;16.99;100.00;102097.31;2614025;36;19976;-59
2022/06/13 07:17:08;;;;;;;;;;;;;;;17.31;100.00;102098.78;2613799;36;19957;-60
2022/06/13 07:19:37;;;;;;;;;;;;;;;17.49;100.00;102093.38;2613856;36;19947;-60
2022/06/13 07:22:06;;;;;;;;;;;;;;;17.65;100.00;102108.16;2613518;31;19954;-59
2022/06/13 07:24:34;;;;;;;;;;;;;;;17.65;100.00;102100.88;2613665;36;19954;-58
2022/06/13 07:27:02;;;;;;;;;;;;;;;17.74;100.00;102112.72;2613166;36;19954;-58
2022/06/13 07:29:31;;;;;;;;;;;;;;;17.38;100.00;102115.34;2613959;36;19946;-59
2022/06/13 07:32:07;;;;;;;;;;;;;;;17.74;100.00;102117.28;2614176;36;21251;-59
2022/06/13 07:34:36;;;;;;;;;;;;;;;18.39;100.00;102120.72;2613736;31;19974;-60
2022/06/13 07:37:06;;;;;;;;;;;;;;;18.59;100.00;102119.69;2613113;36;19946;-60
2022/06/13 07:39:34;;;;;;;;;;;;;;;18.38;100.00;102123.59;2613886;36;20452;-58
2022/06/13 07:42:02;;;;;;;;;;;;;;;18.28;100.00;102131.00;2613283;36;19950;-60
2022/06/13 07:44:32;;;;;;;;;;;;;;;18.43;100.00;102134.03;2613894;36;20459;-60
2022/06/13 07:47:03;;;;;;;;;;;;;;;18.10;100.00;102140.03;2613872;36;19985;-60
2022/06/13 07:49:31;;;;;;;;;;;;;;;18.02;100.00;102148.09;2614124;36;19953;-60
2022/06/13 07:51:59;;;;;;;;;;;;;;;17.77;100.00;102145.09;2613780;36;19958;-61
2022/06/13 07:54:27;;;;;;;;;;;;;;;17.55;100.00;102150.94;2613718;36;19977;-62
2022/06/13 07:56:56;;;;;;;;;;;;;;;17.75;100.00;102160.72;2613831;36;19950;-62
2022/06/13 07:59:27;;;;;;;;;;;;;;;17.81;100.00;102151.94;2613872;36;19955;-62
2022/06/13 08:01:55;;;;;;;;;;;;;;;17.43;100.00;102159.31;2613884;36;19969;-59
2022/06/13 08:04:26;;;;;;;;;;;;;;;17.00;100.00;102158.00;2614090;36;19958;-60
2022/06/13 08:06:54;;;;;;;;;;;;;;;16.90;100.00;102170.75;2613822;36;19951;-59
2022/06/13 08:09:23;;;;;;;;;;;;;;;17.70;100.00;102165.78;2613909;36;20002;-61
2022/06/13 08:11:52;;;;;;;;;;;;;;;17.89;100.00;102174.81;2613755;36;19946;-58
2022/06/13 08:14:21;;;;;;;;;;;;;;;18.26;100.00;102176.66;2613249;36;19947;-59
2022/06/13 08:16:50;;;;;;;;;;;;;;;18.36;100.00;102180.16;2613384;36;19997;-59
2022/06/13 08:19:18;;;;;;;;;;;;;;;18.25;100.00;102174.94;2613770;36;19946;-59
2022/06/13 08:21:51;;;;;;;;;;;;;;;19.05;100.00;102170.38;2612832;36;19946;-59
2022/06/13 08:24:19;;;;;;;;;;;;;;;18.95;100.00;102188.72;2612477;31;20570;-59
2022/06/13 08:26:47;;;;;;;;;;;;;;;18.55;100.00;102188.19;2613382;36;21034;-60
2022/06/13 08:29:15;;;;;;;;;;;;;;;18.74;100.00;102192.59;2613582;36;19947;-59
2022/06/13 08:31:43;;;;;;;;;;;;;;;18.80;100.00;102188.38;2616290;31;19950;-58
2022/06/13 08:34:12;;;;;;;;;;;;;;;19.08;100.00;102189.13;2613169;36;19946;-59
2022/06/13 08:36:40;;;;;;;;;;;;;;;18.96;100.00;102198.59;2613526;36;20303;-60
2022/06/13 08:39:10;;;;;;;;;;;;;;;18.46;100.00;102194.56;2613829;36;19977;-58
2022/06/13 08:41:43;;;;;;;;;;;;;;;18.83;100.00;102207.16;2613893;31;20414;-60
2022/06/13 08:44:22;;;;;;;;;;;;;;;18.55;100.00;102193.63;2613163;31;19950;-58
2022/06/13 08:46:55;;;;;;;;;;;;;;;18.99;100.00;102202.88;2613450;31;19958;-58
2022/06/13 08:49:25;;;;;;;;;;;;;;;18.73;100.00;102204.53;2613758;36;20005;-58
2022/06/13 08:51:57;;;;;;;;;;;;;;;18.63;100.00;102211.06;2612903;36;20323;-59
2022/06/13 08:54:34;;;;;;;;;;;;;;;18.88;100.00;102210.28;2613485;31;19954;-61
2022/06/13 08:57:03;;;;;;;;;;;;;;;18.62;100.00;102206.63;2613286;36;20065;-58
2022/06/13 08:59:34;;;;;;;;;;;;;;;18.59;100.00;102206.94;2613404;36;19977;-58
2022/06/13 09:02:05;;;;;;;;;;;;;;;18.94;100.00;102207.97;2613248;36;19961;-58
2022/06/13 09:04:37;;;;;;;;;;;;;;;18.77;100.00;102217.84;2613753;36;19958;-62
2022/06/13 09:07:09;;;;;;;;;;;;;;;19.10;100.00;102221.72;2613086;36;20335;-58
2022/06/13 09:09:43;;;;;;;;;;;;;;;19.02;100.00;102227.09;2613874;36;19950;-59
2022/06/13 09:12:14;;;;;;;;;;;;;;;19.38;100.00;102222.41;2612990;36;19986;-59
2022/06/13 09:14:45;;;;;;;;;;;;;;;18.27;100.00;102224.66;2613806;36;20359;-58
2022/06/13 09:17:16;;;;;;;;;;;;;;;18.51;100.00;102227.66;2612983;36;19947;-59
2022/06/13 09:19:49;;;;;;;;;;;;;;;19.31;100.00;102228.69;2613901;31;19977;-59
2022/06/13 09:22:21;;;;;;;;;;;;;;;20.02;95.04;102224.81;2612425;36;19946;-59
2022/06/13 09:24:55;;;;;;;;;;;;;;;19.89;92.52;102229.88;2613101;36;20448;-60
2022/06/13 09:27:27;;;;;;;;;;;;;;;20.16;89.89;102226.06;2612965;36;19953;-61
2022/06/13 09:29:58;;;;;;;;;;;;;;;19.21;97.45;102231.50;2613339;36;19946;-59
2022/06/13 09:32:29;;;;;;;;;;;;;;;18.73;100.00;102234.50;2613073;36;19971;-62
2022/06/13 09:35:01;;;;;;;;;;;;;;;19.14;100.00;102230.44;2613519;36;19950;-59
2022/06/13 09:37:32;;;;;;;;;;;;;;;19.11;100.00;102236.22;2613839;31;19951;-59
2022/06/13 09:40:03;;;;;;;;;;;;;;;18.45;100.00;102233.75;2613403;36;19954;-60
2022/06/13 09:42:36;;;;;;;;;;;;;;;19.21;100.00;102240.59;2613627;36;19981;-59
2022/06/13 09:45:28;;;;;;;;;;;;;;;18.88;97.40;102243.03;2612778;36;20406;-59
2022/06/13 09:48:00;;;;;;;;;;;;;;;18.80;97.48;102245.66;2613384;36;19958;-58
2022/06/13 09:50:34;;;;;;;;;;;;;;;18.63;100.00;102254.72;2613625;31;20708;-61
2022/06/13 09:53:05;;;;;;;;;;;;;;;19.28;95.93;102253.59;2613056;31;20479;-60
2022/06/13 09:55:41;;;;;;;;;;;;;;;19.90;86.60;102254.31;2613492;36;19953;-60
2022/06/13 09:58:13;;;;;;;;;;;;;;;18.79;97.38;102254.84;2612846;36;20075;-58
2022/06/13 10:00:45;;;;;;;;;;;;;;;19.28;96.79;102256.31;2613290;36;19966;-61
2022/06/13 10:03:23;;;;;;;;;;;;;;;20.27;95.43;102247.63;2613378;36;19947;-60
2022/06/13 10:05:56;;;;;;;;;;;;;;;20.72;94.96;102253.72;2614362;36;19946;-60
2022/06/13 10:08:43;;;;;;;;;;;;;;;20.60;80.96;102250.44;2613972;36;20406;-59
2022/06/13 10:11:18;;;;;;;;;;;;;;;18.98;92.41;102262.06;2614286;36;19954;-59
2022/06/13 10:13:54;;;;;;;;;;;;;;;19.22;100.00;102277.75;2613972;36;20011;-60
2022/06/13 10:16:29;;;;;;;;;;;;;;;19.23;94.22;102262.25;2614468;36;19946;-60
2022/06/13 10:19:05;;;;;;;;;;;;;;;19.00;94.84;102261.91;2613842;36;19979;-61
2022/06/13 10:21:37;;;;;;;;;;;;;;;19.90;91.69;102265.22;2613995;36;19981;-59
2022/06/13 10:24:11;;;;;;;;;;;;;;;19.91;83.74;102256.03;2613673;36;20454;-60
2022/06/13 10:26:45;;;;;;;;;;;;;;;20.34;81.48;102266.09;2614139;31;19950;-61
2022/06/13 10:29:24;;;;;;;;;;;;;;;20.05;70.91;102253.69;2614150;36;19951;-61
2022/06/13 10:31:59;;;;;;;;;;;;;;;20.74;77.88;102262.59;2614065;36;19954;-61
2022/06/13 10:34:30;;;;;;;;;;;;;;;19.17;78.91;102274.66;2613434;36;20360;-60
2022/06/13 10:37:19;;;;;;;;;;;;;;;18.78;83.10;102264.03;2614062;36;19950;-62
2022/06/13 10:39:47;;;;;;;;;;;;;;;19.77;82.61;102268.41;2614127;36;20300;-60
2022/06/13 10:42:21;;;;;;;;;;;;;;;20.49;82.24;102258.94;2613624;31;19985;-61
2022/06/13 10:44:49;;;;;;;;;;;;;;;20.12;88.01;102263.78;2614788;36;20347;-61
2022/06/13 10:47:20;;;;;;;;;;;;;;;19.56;96.05;102274.25;2614165;36;19954;-59
2022/06/13 10:49:52;;;;;;;;;;;;;;;20.03;87.67;102269.41;2614146;36;20460;-60
2022/06/13 10:52:24;;;;;;;;;;;;;;;20.28;81.00;102271.19;2613907;36;20004;-60
2022/06/13 10:54:54;;;;;;;;;;;;;;;20.02;81.00;102267.69;2613706;31;19951;-59
2022/06/13 10:57:29;;;;;;;;;;;;;;;19.71;86.88;102276.38;2612792;36;19978;-60
2022/06/13 11:00:18;;;;;;;;;;;;;;;20.35;86.03;102265.94;2614185;36;20448;-62
2022/06/13 11:02:46;;;;;;;;;;;;;;;19.93;85.96;102278.59;2613699;36;19950;-60
2022/06/13 11:05:16;;;;;;;;;;;;;;;20.47;75.39;102266.47;2614271;36;20353;-61
2022/06/13 11:07:46;;;;;;;;;;;;;;;20.74;81.89;102269.97;2613303;36;19950;-60
2022/06/13 11:10:24;;;;;;;;;;;;;;;21.22;67.42;102276.50;2614065;36;19951;-61
2022/06/13 11:12:55;;;;;;;;;;;;;;;21.65;66.46;102282.59;2613696;36;19961;-60
2022/06/13 11:23:39;;;;;;;;;;;;;;;20.86;74.96;102285.03;2613631;36;19946;-60
2022/06/13 11:27:39;;;;;;;;;;;;;;;20.12;74.08;102285.66;2614077;36;19967;-60
2022/06/13 11:28:58;;;;;;;;;;;;;;;20.39;75.72;102288.31;2614165;36;21113;-61
2022/06/13 11:31:26;;;;;;;;;;;;;;;20.62;77.21;102281.19;2613804;36;20004;-61
2022/06/13 11:33:55;;;;;;;;;;;;;;;20.59;79.35;102287.00;2613284;36;19950;-60
2022/06/13 11:36:25;;;;;;;;;;;;;;;21.17;73.43;102289.81;2613790;31;19950;-62
2022/06/13 11:38:54;;;;;;;;;;;;;;;20.56;78.92;102295.56;2614123;36;20349;-60
2022/06/13 11:41:24;;;;;;;;;;;;;;;21.05;78.08;102289.31;2613864;36;19958;-60
2022/06/13 11:43:54;;;;;;;;;;;;;;;21.72;79.81;102298.38;2614089;36;19954;-60
2022/06/13 11:46:43;;;;;;;;;;;;;;;21.91;69.44;102287.00;2614873;31;19951;-61
2022/06/13 11:49:26;;;;;;;;;;;;;;;22.04;69.44;102286.44;2613175;36;19981;-60
2022/06/13 11:51:57;;;;;;;;;;;;;;;22.06;68.97;102289.84;2613148;36;19950;-61
2022/06/13 11:54:27;;;;;;;;;;;;;;;21.26;70.00;102291.56;2613696;36;19950;-59
2022/06/13 11:57:12;;;;;;;;;;;;;;;21.21;82.20;102296.66;2613609;36;20318;-60
2022/06/13 11:59:49;;;;;;;;;;;;;;;21.74;76.20;102301.78;2613939;36;19985;-58
2022/06/13 12:02:24;;;;;;;;;;;;;;;21.97;78.98;102291.75;2613730;36;19947;-60
2022/06/13 12:04:55;;;;;;;;;;;;;;;20.79;79.07;102292.22;2613864;31;19946;-60
2022/06/13 12:07:26;;;;;;;;;;;;;;;20.76;78.46;102289.78;2613473;36;20801;-60
2022/06/13 12:09:56;;;;;;;;;;;;;;;21.93;72.66;102289.56;2613647;36;20042;-60
2022/06/13 12:12:25;;;;;;;;;;;;;;;21.46;68.72;102282.97;2613494;31;19958;-61
2022/06/13 12:14:53;;;;;;;;;;;;;;;21.79;70.10;102293.88;2613695;36;19950;-59
2022/06/13 12:17:27;;;;;;;;;;;;;;;22.19;73.39;102289.28;2614002;31;20387;-60
2022/06/13 12:19:57;;;;;;;;;;;;;;;21.73;66.04;102300.94;2613474;36;19950;-59
2022/06/13 12:22:34;;;;;;;;;;;;;;;21.45;66.10;102298.56;2613465;36;19957;-61
2022/06/13 12:25:06;;;;;;;;;;;;;;;20.46;71.69;102303.91;2613070;31;20550;-61
2022/06/13 12:27:42;;;;;;;;;;;;;;;20.34;75.05;102298.91;2612956;36;19954;-61
2022/06/13 12:30:28;;;;;;;;;;;;;;;19.89;76.15;102301.78;2613873;31;19954;-59
2022/06/13 12:33:02;;;;;;;;;;;;;;;20.04;86.63;102312.97;2612947;36;19950;-60
2022/06/13 12:35:48;;;;;;;;;;;;;;;20.82;76.54;102311.03;2613359;36;19982;-60
2022/06/13 12:38:24;;;;;;;;;;;;;;;21.57;70.45;102307.31;2613063;31;20428;-59
2022/06/13 12:40:57;;;;;;;;;;;;;;;20.87;68.45;102307.78;2613524;36;19961;-60
2022/06/13 12:43:37;;;;;;;;;;;;;;;21.30;63.47;102312.09;2612974;36;19985;-62
2022/06/13 12:46:22;;;;;;;;;;;;;;;21.00;65.63;102317.19;2613542;36;19946;-61
2022/06/13 12:48:57;;;;;;;;;;;;;;;21.30;63.42;102311.22;2613192;31;19950;-60
2022/06/13 12:51:31;;;;;;;;;;;;;;;20.73;65.02;102322.97;2613034;36;19955;-60
2022/06/13 12:54:08;;;;;;;;;;;;;;;20.57;64.94;102310.94;2613607;36;20325;-61
2022/06/13 12:56:42;;;;;;;;;;;;;;;21.38;69.16;102315.81;2613385;36;19951;-59
2022/06/13 12:59:19;;;;;;;;;;;;;;;21.80;70.40;102317.50;2613190;31;19957;-61
2022/06/13 13:02:02;;;;;;;;;;;;;;;22.20;67.89;102318.41;2613750;36;19950;-59
2022/06/13 13:04:45;;;;;;;;;;;;;;;22.55;65.69;102318.97;2613146;36;19947;-60
2022/06/13 13:07:19;;;;;;;;;;;;;;;22.71;67.20;102310.63;2613061;36;20352;-59
2022/06/13 13:10:03;;;;;;;;;;;;;;;21.66;62.62;102319.94;2613324;36;19950;-62
2022/06/13 13:12:49;;;;;;;;;;;;;;;21.74;66.55;102319.06;2613822;36;20006;-60
2022/06/13 13:15:20;;;;;;;;;;;;;;;22.04;66.62;102319.34;2614077;36;20040;-60